CES5002 RCTP-ZSNJ
Flight info
| Callsign | CES5002 |
|---|---|
| Flight time | 1h 27m |
| Altitude | 32000 |
| Route | PIANO1A/05R PIANO L3 VIOLA R596 SULEM R596 DST V143 EMRID A470 TOL A599 KAKIS |
| Aircraft | A359/H-SDE2E3GHIJ3J4J5LM1ORWXY/LB1D1 |
Departure
| Time | 2026-05-04 11:52 |
|---|---|
| Airport | Taiwan Taoyuan International Airport (RCTP) |
Arrival
| Time | 2026-05-04 13:20 |
|---|---|
| Airport | Nanjing Lukou International Airport (ZSNJ) |
| Time | Latitude | Longitude | Altitude | Speed | Heading |
|---|---|---|---|---|---|
| 2026-05-04 11:08 | 25.08031 | 121.23966 | 88 ft | 0 kts | 319° |
| 2026-05-04 11:37 | 25.08027 | 121.23969 | 88 ft | 4 kts | 319° |
| 2026-05-04 11:38 | 25.08007 | 121.23989 | 88 ft | 4 kts | 319° |
| 2026-05-04 11:38 | 25.07986 | 121.24009 | 91 ft | 4 kts | 319° |
| 2026-05-04 11:38 | 25.07966 | 121.24028 | 89 ft | 4 kts | 319° |
| 2026-05-04 11:38 | 25.07948 | 121.24046 | 92 ft | 3 kts | 318° |
| 2026-05-04 11:39 | 25.07938 | 121.24064 | 90 ft | 4 kts | 244° |
| 2026-05-04 11:39 | 25.07954 | 121.24086 | 92 ft | 4 kts | 223° |
| 2026-05-04 11:40 | 25.07969 | 121.24102 | 89 ft | 0 kts | 229° |
| 2026-05-04 11:42 | 25.07961 | 121.24091 | 91 ft | 6 kts | 230° |
| 2026-05-04 11:42 | 25.07929 | 121.24050 | 92 ft | 10 kts | 229° |
| 2026-05-04 11:42 | 25.07860 | 121.23962 | 93 ft | 17 kts | 229° |
| 2026-05-04 11:43 | 25.07778 | 121.23857 | 94 ft | 19 kts | 229° |
| 2026-05-04 11:43 | 25.07684 | 121.23739 | 93 ft | 22 kts | 228° |
| 2026-05-04 11:43 | 25.07583 | 121.23713 | 93 ft | 13 kts | 150° |
| 2026-05-04 11:43 | 25.07509 | 121.23769 | 90 ft | 13 kts | 153° |
| 2026-05-04 11:44 | 25.07433 | 121.23746 | 91 ft | 13 kts | 229° |
| 2026-05-04 11:44 | 25.07337 | 121.23619 | 93 ft | 25 kts | 230° |
| 2026-05-04 11:44 | 25.07219 | 121.23469 | 95 ft | 27 kts | 229° |
| 2026-05-04 11:44 | 25.07090 | 121.23306 | 98 ft | 29 kts | 228° |
| 2026-05-04 11:45 | 25.06952 | 121.23132 | 98 ft | 31 kts | 229° |
| 2026-05-04 11:45 | 25.06805 | 121.22944 | 99 ft | 33 kts | 230° |
| 2026-05-04 11:45 | 25.06654 | 121.22751 | 100 ft | 25 kts | 229° |
| 2026-05-04 11:45 | 25.06560 | 121.22633 | 100 ft | 21 kts | 229° |
| 2026-05-04 11:46 | 25.06455 | 121.22501 | 99 ft | 25 kts | 229° |
| 2026-05-04 11:46 | 25.06346 | 121.22363 | 102 ft | 15 kts | 231° |
| 2026-05-04 11:46 | 25.06274 | 121.22270 | 102 ft | 17 kts | 225° |
| 2026-05-04 11:46 | 25.06207 | 121.22263 | 100 ft | 9 kts | 154° |
| 2026-05-04 11:47 | 25.06135 | 121.22328 | 104 ft | 13 kts | 127° |
| 2026-05-04 11:47 | 25.06135 | 121.22400 | 104 ft | 11 kts | 66° |
| 2026-05-04 11:47 | 25.06175 | 121.22471 | 103 ft | 12 kts | 51° |
| 2026-05-04 11:47 | 25.06187 | 121.22487 | 101 ft | 0 kts | 50° |
| 2026-05-04 11:50 | 25.06188 | 121.22488 | 101 ft | 0 kts | 50° |
| 2026-05-04 11:50 | 25.06191 | 121.22491 | 101 ft | 1 kts | 50° |
| 2026-05-04 11:51 | 25.06197 | 121.22499 | 101 ft | 0 kts | 50° |
| 2026-05-04 11:52 | 25.06227 | 121.22538 | 103 ft | 32 kts | 49° |
| 2026-05-04 11:52 | 25.06545 | 121.22940 | 99 ft | 105 kts | 49° |
| 2026-05-04 11:52 | 25.07163 | 121.23720 | 129 ft | 161 kts | 51° |
| 2026-05-04 11:52 | 25.07916 | 121.24683 | 840 ft | 166 kts | 53° |
| 2026-05-04 11:53 | 25.08675 | 121.25702 | 1529 ft | 185 kts | 56° |
| 2026-05-04 11:53 | 25.09564 | 121.26896 | 1954 ft | 215 kts | 54° |
| 2026-05-04 11:53 | 25.10580 | 121.28179 | 2706 ft | 229 kts | 50° |
| 2026-05-04 11:53 | 25.11985 | 121.29100 | 3542 ft | 248 kts | 20° |
| 2026-05-04 11:55 | 25.25585 | 121.28656 | 9020 ft | 293 kts | 353° |
| 2026-05-04 11:55 | 25.27628 | 121.28579 | 9641 ft | 295 kts | 352° |
| 2026-05-04 11:56 | 25.29695 | 121.28501 | 10212 ft | 300 kts | 352° |
| 2026-05-04 11:56 | 25.31832 | 121.28419 | 10489 ft | 314 kts | 352° |
| 2026-05-04 11:56 | 25.34060 | 121.28336 | 10742 ft | 328 kts | 353° |
| 2026-05-04 11:56 | 25.36401 | 121.28498 | 10990 ft | 348 kts | 5° |
| 2026-05-04 11:57 | 25.38773 | 121.29318 | 11229 ft | 367 kts | 21° |
| 2026-05-04 11:57 | 25.40949 | 121.30913 | 11455 ft | 385 kts | 39° |
| 2026-05-04 11:57 | 25.42808 | 121.33095 | 11803 ft | 392 kts | 47° |
| 2026-05-04 11:57 | 25.44587 | 121.35405 | 12210 ft | 396 kts | 47° |
| 2026-05-04 11:58 | 25.46394 | 121.37749 | 12804 ft | 403 kts | 47° |
| 2026-05-04 11:58 | 25.48230 | 121.40115 | 13575 ft | 407 kts | 46° |
| 2026-05-04 11:58 | 25.50087 | 121.42500 | 14255 ft | 412 kts | 46° |
| 2026-05-04 11:58 | 25.51973 | 121.44918 | 14859 ft | 417 kts | 46° |
| 2026-05-04 11:59 | 25.53883 | 121.47365 | 15502 ft | 422 kts | 46° |
| 2026-05-04 11:59 | 25.55790 | 121.49807 | 16087 ft | 428 kts | 46° |
| 2026-05-04 11:59 | 25.57776 | 121.52350 | 16619 ft | 434 kts | 46° |
| 2026-05-04 11:59 | 25.59739 | 121.54865 | 17205 ft | 439 kts | 46° |
| 2026-05-04 12:00 | 25.61743 | 121.57435 | 17777 ft | 445 kts | 46° |
| 2026-05-04 12:00 | 25.63780 | 121.60047 | 18333 ft | 450 kts | 45° |
| 2026-05-04 12:00 | 25.65838 | 121.62688 | 18839 ft | 455 kts | 45° |
| 2026-05-04 12:00 | 25.67918 | 121.65360 | 19356 ft | 460 kts | 46° |
| 2026-05-04 12:01 | 25.70011 | 121.68049 | 19885 ft | 464 kts | 46° |
| 2026-05-04 12:01 | 25.72132 | 121.70776 | 20428 ft | 468 kts | 46° |
| 2026-05-04 12:02 | 25.86077 | 121.86435 | 23680 ft | 483 kts | 30° |
| 2026-05-04 12:03 | 25.88827 | 121.88598 | 24107 ft | 486 kts | 29° |
| 2026-05-04 12:03 | 25.91615 | 121.90759 | 24565 ft | 491 kts | 29° |
| 2026-05-04 12:03 | 25.94421 | 121.92947 | 25036 ft | 495 kts | 30° |
| 2026-05-04 12:03 | 25.97249 | 121.95181 | 25451 ft | 503 kts | 30° |
| 2026-05-04 12:04 | 26.00106 | 121.97464 | 25895 ft | 508 kts | 30° |
| 2026-05-04 12:04 | 26.02972 | 121.99777 | 26406 ft | 512 kts | 30° |
| 2026-05-04 12:04 | 26.05834 | 122.02072 | 26890 ft | 515 kts | 30° |
| 2026-05-04 12:04 | 26.08779 | 122.04385 | 27376 ft | 519 kts | 29° |
| 2026-05-04 12:05 | 26.11745 | 122.06692 | 27852 ft | 523 kts | 29° |
| 2026-05-04 12:05 | 26.14748 | 122.09023 | 28367 ft | 526 kts | 30° |
| 2026-05-04 12:05 | 26.17750 | 122.11361 | 28901 ft | 529 kts | 29° |
| 2026-05-04 12:05 | 26.20795 | 122.13735 | 29146 ft | 538 kts | 29° |
| 2026-05-04 12:06 | 26.23899 | 122.16157 | 29176 ft | 552 kts | 29° |
| 2026-05-04 12:06 | 26.27039 | 122.18613 | 29172 ft | 560 kts | 30° |
| 2026-05-04 12:06 | 26.33440 | 122.23653 | 29168 ft | 560 kts | 30° |
| 2026-05-04 12:07 | 26.39762 | 122.28642 | 29193 ft | 560 kts | 29° |
| 2026-05-04 12:07 | 26.46140 | 122.33670 | 29167 ft | 562 kts | 29° |
| 2026-05-04 12:08 | 26.52521 | 122.38708 | 29172 ft | 561 kts | 30° |
| 2026-05-04 12:08 | 26.58894 | 122.43743 | 29176 ft | 561 kts | 30° |
| 2026-05-04 12:09 | 26.65270 | 122.48786 | 29177 ft | 563 kts | 29° |
| 2026-05-04 12:09 | 26.71666 | 122.53852 | 29181 ft | 563 kts | 29° |
| 2026-05-04 12:10 | 26.78064 | 122.58929 | 29180 ft | 563 kts | 30° |
| 2026-05-04 12:10 | 26.84463 | 122.64016 | 29181 ft | 564 kts | 29° |
| 2026-05-04 12:11 | 26.90871 | 122.69115 | 29178 ft | 565 kts | 29° |
| 2026-05-04 12:11 | 26.97287 | 122.74226 | 29178 ft | 566 kts | 29° |
| 2026-05-04 12:12 | 27.03696 | 122.79341 | 29180 ft | 566 kts | 29° |
| 2026-05-04 12:12 | 27.10110 | 122.84469 | 29177 ft | 566 kts | 29° |
| 2026-05-04 12:14 | 27.36866 | 122.87387 | 29185 ft | 463 kts | 315° |
| 2026-05-04 12:15 | 27.39330 | 122.85157 | 29180 ft | 448 kts | 307° |
| 2026-05-04 12:15 | 27.41391 | 122.82580 | 29170 ft | 437 kts | 298° |
| 2026-05-04 12:15 | 27.44230 | 122.76733 | 29177 ft | 419 kts | 283° |
| 2026-05-04 12:16 | 27.45356 | 122.70418 | 29174 ft | 408 kts | 269° |
| 2026-05-04 12:16 | 27.44826 | 122.64125 | 29177 ft | 404 kts | 256° |
| 2026-05-04 12:17 | 27.44020 | 122.57863 | 29170 ft | 405 kts | 265° |
| 2026-05-04 12:17 | 27.43872 | 122.51524 | 29169 ft | 406 kts | 266° |
| 2026-05-04 12:18 | 27.43864 | 122.45174 | 29178 ft | 406 kts | 267° |
| 2026-05-04 12:18 | 27.44492 | 122.38815 | 29170 ft | 410 kts | 275° |
| 2026-05-04 12:19 | 27.45559 | 122.32498 | 29173 ft | 411 kts | 276° |
| 2026-05-04 12:19 | 27.46686 | 122.26177 | 29174 ft | 412 kts | 277° |
| 2026-05-04 12:20 | 27.47809 | 122.19844 | 29174 ft | 412 kts | 276° |
| 2026-05-04 12:20 | 27.48909 | 122.13558 | 29186 ft | 412 kts | 276° |
| 2026-05-04 12:21 | 27.50009 | 122.07226 | 29192 ft | 412 kts | 276° |
| 2026-05-04 12:21 | 27.51106 | 122.00884 | 29177 ft | 413 kts | 277° |
| 2026-05-04 12:22 | 27.52203 | 121.94534 | 29175 ft | 413 kts | 277° |
| 2026-05-04 12:22 | 27.53298 | 121.88185 | 29176 ft | 413 kts | 276° |
| 2026-05-04 12:23 | 27.54381 | 121.81879 | 29176 ft | 413 kts | 276° |
| 2026-05-04 12:23 | 27.55477 | 121.75485 | 29179 ft | 413 kts | 276° |
| 2026-05-04 12:24 | 27.56556 | 121.69167 | 29175 ft | 413 kts | 276° |
| 2026-05-04 12:24 | 27.57641 | 121.62800 | 29176 ft | 413 kts | 276° |
| 2026-05-04 12:25 | 27.58723 | 121.56443 | 29178 ft | 413 kts | 276° |
| 2026-05-04 12:25 | 27.59842 | 121.50106 | 29183 ft | 413 kts | 277° |
| 2026-05-04 12:26 | 27.60975 | 121.43752 | 29178 ft | 414 kts | 277° |
| 2026-05-04 12:26 | 27.62103 | 121.37389 | 29179 ft | 414 kts | 277° |
| 2026-05-04 12:27 | 27.63223 | 121.31032 | 29178 ft | 414 kts | 277° |
| 2026-05-04 12:27 | 27.64340 | 121.24669 | 29172 ft | 414 kts | 277° |
| 2026-05-04 12:28 | 27.65455 | 121.18299 | 29174 ft | 414 kts | 277° |
| 2026-05-04 12:28 | 27.66567 | 121.11925 | 29173 ft | 414 kts | 277° |
| 2026-05-04 12:29 | 27.67671 | 121.05583 | 29172 ft | 415 kts | 277° |
| 2026-05-04 12:29 | 27.68780 | 120.99194 | 29171 ft | 415 kts | 277° |
| 2026-05-04 12:30 | 27.69886 | 120.92808 | 29177 ft | 415 kts | 277° |
| 2026-05-04 12:30 | 27.70991 | 120.86400 | 29175 ft | 416 kts | 277° |
| 2026-05-04 12:31 | 27.72094 | 120.79991 | 29168 ft | 416 kts | 277° |
| 2026-05-04 12:31 | 27.73014 | 120.74654 | 29170 ft | 416 kts | 277° |
| 2026-05-04 12:32 | 27.76336 | 120.65489 | 29177 ft | 433 kts | 297° |
| 2026-05-04 12:33 | 27.80572 | 120.60477 | 29182 ft | 454 kts | 314° |
| 2026-05-04 12:33 | 27.83282 | 120.58536 | 29180 ft | 466 kts | 322° |
| 2026-05-04 12:33 | 27.86177 | 120.56865 | 29180 ft | 469 kts | 324° |
| 2026-05-04 12:34 | 27.92073 | 120.53750 | 29178 ft | 472 kts | 326° |
| 2026-05-04 12:34 | 27.98030 | 120.50655 | 29178 ft | 470 kts | 326° |
| 2026-05-04 12:35 | 28.03955 | 120.47482 | 29179 ft | 470 kts | 325° |
| 2026-05-04 12:35 | 28.09854 | 120.44287 | 29175 ft | 470 kts | 325° |
| 2026-05-04 12:36 | 28.15727 | 120.41113 | 29183 ft | 469 kts | 326° |
| 2026-05-04 12:36 | 28.21611 | 120.37937 | 29173 ft | 468 kts | 326° |
| 2026-05-04 12:37 | 28.27490 | 120.34761 | 29173 ft | 467 kts | 326° |
| 2026-05-04 12:37 | 28.33359 | 120.31588 | 29176 ft | 467 kts | 326° |
| 2026-05-04 12:38 | 28.39208 | 120.28412 | 29170 ft | 466 kts | 326° |
| 2026-05-04 12:38 | 28.45056 | 120.25237 | 29169 ft | 466 kts | 326° |
| 2026-05-04 12:39 | 28.50916 | 120.22049 | 29167 ft | 465 kts | 326° |
| 2026-05-04 12:39 | 28.56754 | 120.18874 | 29156 ft | 465 kts | 326° |
| 2026-05-04 12:40 | 28.62550 | 120.15714 | 29147 ft | 465 kts | 326° |
| 2026-05-04 12:40 | 28.68392 | 120.12524 | 29143 ft | 466 kts | 326° |
| 2026-05-04 12:41 | 28.74232 | 120.09336 | 29159 ft | 464 kts | 326° |
| 2026-05-04 12:41 | 28.80040 | 120.06161 | 29141 ft | 462 kts | 326° |
| 2026-05-04 12:42 | 28.85836 | 120.02987 | 29127 ft | 462 kts | 326° |
| 2026-05-04 12:42 | 28.91629 | 119.99810 | 29122 ft | 462 kts | 326° |
| 2026-05-04 12:43 | 28.97426 | 119.96628 | 29120 ft | 462 kts | 326° |
| 2026-05-04 12:43 | 29.03228 | 119.93440 | 29123 ft | 461 kts | 326° |
| 2026-05-04 12:44 | 29.09006 | 119.90260 | 29114 ft | 460 kts | 325° |
| 2026-05-04 12:44 | 29.14772 | 119.87084 | 29106 ft | 460 kts | 325° |
| 2026-05-04 12:45 | 29.20503 | 119.83922 | 29111 ft | 460 kts | 325° |
| 2026-05-04 12:45 | 29.26301 | 119.80719 | 29107 ft | 459 kts | 325° |
| 2026-05-04 12:46 | 29.32015 | 119.77561 | 29116 ft | 459 kts | 325° |
| 2026-05-04 12:46 | 29.37767 | 119.74374 | 29104 ft | 459 kts | 325° |
| 2026-05-04 12:47 | 29.43517 | 119.71180 | 29104 ft | 459 kts | 325° |
| 2026-05-04 12:47 | 29.49263 | 119.67987 | 29104 ft | 459 kts | 325° |
| 2026-05-04 12:48 | 29.55359 | 119.65486 | 29104 ft | 477 kts | 339° |
| 2026-05-04 12:48 | 29.58699 | 119.65021 | 29103 ft | 489 kts | 348° |
| 2026-05-04 12:48 | 29.62114 | 119.64937 | 29101 ft | 494 kts | 350° |
| 2026-05-04 12:49 | 29.69001 | 119.65252 | 29098 ft | 502 kts | 354° |
| 2026-05-04 12:49 | 29.75991 | 119.66530 | 29101 ft | 521 kts | 8° |
| 2026-05-04 12:49 | 29.79392 | 119.68111 | 29102 ft | 534 kts | 19° |
| 2026-05-04 12:50 | 29.82662 | 119.70197 | 29136 ft | 539 kts | 22° |
| 2026-05-04 12:50 | 29.89130 | 119.74560 | 29089 ft | 537 kts | 23° |
| 2026-05-04 12:51 | 29.95581 | 119.78911 | 29089 ft | 538 kts | 22° |
| 2026-05-04 12:51 | 30.02049 | 119.83272 | 29081 ft | 538 kts | 23° |
| 2026-05-04 12:52 | 30.08476 | 119.87612 | 29083 ft | 537 kts | 23° |
| 2026-05-04 12:52 | 30.14917 | 119.91966 | 29083 ft | 536 kts | 23° |
| 2026-05-04 12:53 | 30.21349 | 119.96316 | 29078 ft | 536 kts | 23° |
| 2026-05-04 12:53 | 30.27790 | 120.00683 | 29081 ft | 536 kts | 23° |
| 2026-05-04 12:54 | 30.34226 | 120.05053 | 29078 ft | 536 kts | 23° |
| 2026-05-04 12:54 | 30.40656 | 120.09426 | 29074 ft | 536 kts | 23° |
| 2026-05-04 12:55 | 30.47396 | 120.12670 | 28797 ft | 515 kts | 1° |
| 2026-05-04 12:55 | 30.50890 | 120.12827 | 28525 ft | 494 kts | 346° |
| 2026-05-04 12:55 | 30.54162 | 120.11967 | 28253 ft | 472 kts | 331° |
| 2026-05-04 12:55 | 30.56974 | 120.10195 | 28011 ft | 452 kts | 316° |
| 2026-05-04 12:56 | 30.59175 | 120.07688 | 27754 ft | 438 kts | 303° |
| 2026-05-04 12:56 | 30.60972 | 120.04853 | 27493 ft | 436 kts | 303° |
| 2026-05-04 12:56 | 30.63096 | 120.02306 | 27250 ft | 443 kts | 314° |
| 2026-05-04 12:56 | 30.65497 | 120.00118 | 26995 ft | 445 kts | 317° |
| 2026-05-04 12:57 | 30.67943 | 119.98005 | 26740 ft | 444 kts | 317° |
| 2026-05-04 12:57 | 30.70453 | 119.95857 | 26337 ft | 437 kts | 317° |
| 2026-05-04 12:57 | 30.72882 | 119.93784 | 25809 ft | 430 kts | 317° |
| 2026-05-04 12:57 | 30.75273 | 119.91741 | 25253 ft | 424 kts | 318° |
| 2026-05-04 12:58 | 30.77640 | 119.89717 | 24699 ft | 419 kts | 318° |
| 2026-05-04 12:58 | 30.79976 | 119.87718 | 24129 ft | 414 kts | 318° |
| 2026-05-04 12:58 | 30.82283 | 119.85743 | 23580 ft | 409 kts | 318° |
| 2026-05-04 12:58 | 30.84560 | 119.83792 | 22962 ft | 404 kts | 319° |
| 2026-05-04 12:59 | 30.86810 | 119.81863 | 22418 ft | 399 kts | 319° |
| 2026-05-04 12:59 | 30.89036 | 119.79952 | 21870 ft | 397 kts | 319° |
| 2026-05-04 12:59 | 30.91263 | 119.78037 | 21323 ft | 397 kts | 320° |
| 2026-05-04 12:59 | 30.93454 | 119.76155 | 20779 ft | 396 kts | 320° |
| 2026-05-04 13:00 | 30.95668 | 119.74252 | 20217 ft | 395 kts | 320° |
| 2026-05-04 13:00 | 30.97869 | 119.72360 | 19666 ft | 393 kts | 320° |
| 2026-05-04 13:00 | 31.00062 | 119.70472 | 19107 ft | 391 kts | 321° |
| 2026-05-04 13:00 | 31.02251 | 119.68589 | 18543 ft | 390 kts | 321° |
| 2026-05-04 13:01 | 31.04427 | 119.66714 | 17918 ft | 388 kts | 321° |
| 2026-05-04 13:01 | 31.06589 | 119.64852 | 17325 ft | 385 kts | 321° |
| 2026-05-04 13:01 | 31.08734 | 119.63004 | 16750 ft | 382 kts | 321° |
| 2026-05-04 13:01 | 31.10860 | 119.61171 | 16175 ft | 379 kts | 322° |
| 2026-05-04 13:02 | 31.12975 | 119.59345 | 15591 ft | 376 kts | 322° |
| 2026-05-04 13:02 | 31.15073 | 119.57531 | 15010 ft | 374 kts | 322° |
| 2026-05-04 13:02 | 31.17159 | 119.55729 | 14427 ft | 372 kts | 322° |
| 2026-05-04 13:02 | 31.19235 | 119.53934 | 13836 ft | 370 kts | 323° |
| 2026-05-04 13:03 | 31.21302 | 119.52147 | 13186 ft | 367 kts | 323° |
| 2026-05-04 13:03 | 31.23347 | 119.50377 | 12596 ft | 364 kts | 323° |
| 2026-05-04 13:03 | 31.25339 | 119.48652 | 12039 ft | 360 kts | 323° |
| 2026-05-04 13:03 | 31.27345 | 119.46913 | 11439 ft | 356 kts | 323° |
| 2026-05-04 13:04 | 31.29311 | 119.45208 | 11123 ft | 344 kts | 323° |
| 2026-05-04 13:04 | 31.31189 | 119.43580 | 10999 ft | 327 kts | 323° |
| 2026-05-04 13:04 | 31.32970 | 119.42034 | 10862 ft | 311 kts | 323° |
| 2026-05-04 13:04 | 31.34664 | 119.40563 | 10745 ft | 296 kts | 323° |
| 2026-05-04 13:05 | 31.36278 | 119.39162 | 10607 ft | 282 kts | 323° |
| 2026-05-04 13:05 | 31.37823 | 119.37818 | 10483 ft | 271 kts | 323° |
| 2026-05-04 13:05 | 31.39313 | 119.36523 | 10365 ft | 262 kts | 323° |
| 2026-05-04 13:05 | 31.40750 | 119.35274 | 10231 ft | 254 kts | 323° |
| 2026-05-04 13:06 | 31.42167 | 119.34041 | 10028 ft | 255 kts | 323° |
| 2026-05-04 13:06 | 31.43610 | 119.32785 | 9847 ft | 269 kts | 323° |
| 2026-05-04 13:06 | 31.45126 | 119.31466 | 9743 ft | 271 kts | 323° |
| 2026-05-04 13:06 | 31.46641 | 119.30147 | 9209 ft | 272 kts | 323° |
| 2026-05-04 13:07 | 31.48164 | 119.28820 | 8807 ft | 272 kts | 323° |
| 2026-05-04 13:07 | 31.49684 | 119.27495 | 8505 ft | 272 kts | 322° |
| 2026-05-04 13:07 | 31.51200 | 119.26173 | 8222 ft | 271 kts | 322° |
| 2026-05-04 13:07 | 31.52711 | 119.24856 | 7921 ft | 270 kts | 322° |
| 2026-05-04 13:08 | 31.54222 | 119.23536 | 7636 ft | 270 kts | 322° |
| 2026-05-04 13:08 | 31.55727 | 119.22223 | 7351 ft | 269 kts | 322° |
| 2026-05-04 13:08 | 31.57241 | 119.20929 | 7022 ft | 269 kts | 324° |
| 2026-05-04 13:08 | 31.58925 | 119.20033 | 6665 ft | 271 kts | 344° |
| 2026-05-04 13:09 | 31.60788 | 119.19684 | 6290 ft | 272 kts | 351° |
| 2026-05-04 13:09 | 31.62671 | 119.19448 | 5947 ft | 273 kts | 351° |
| 2026-05-04 13:09 | 31.64567 | 119.19211 | 5596 ft | 274 kts | 351° |
| 2026-05-04 13:09 | 31.66418 | 119.18976 | 5393 ft | 261 kts | 351° |
| 2026-05-04 13:10 | 31.68155 | 119.18754 | 5181 ft | 241 kts | 350° |
| 2026-05-04 13:10 | 31.69761 | 119.18546 | 5034 ft | 223 kts | 350° |
| 2026-05-04 13:10 | 31.71245 | 119.18350 | 4885 ft | 208 kts | 349° |
| 2026-05-04 13:10 | 31.72669 | 119.18158 | 4779 ft | 207 kts | 349° |
| 2026-05-04 13:11 | 31.74107 | 119.17963 | 4509 ft | 208 kts | 349° |
| 2026-05-04 13:11 | 31.75536 | 119.17770 | 4256 ft | 206 kts | 350° |
| 2026-05-04 13:11 | 31.76959 | 119.17580 | 3996 ft | 205 kts | 350° |
| 2026-05-04 13:11 | 31.78367 | 119.17362 | 3901 ft | 204 kts | 345° |
| 2026-05-04 13:12 | 31.79675 | 119.16767 | 3891 ft | 200 kts | 327° |
| 2026-05-04 13:12 | 31.80883 | 119.15922 | 3577 ft | 204 kts | 324° |
| 2026-05-04 13:12 | 31.82078 | 119.15037 | 3372 ft | 201 kts | 324° |
| 2026-05-04 13:12 | 31.83256 | 119.14166 | 3120 ft | 200 kts | 324° |
| 2026-05-04 13:13 | 31.84396 | 119.13254 | 2994 ft | 196 kts | 315° |
| 2026-05-04 13:13 | 31.84920 | 119.11937 | 2985 ft | 168 kts | 264° |
| 2026-05-04 13:13 | 31.84746 | 119.10626 | 3012 ft | 162 kts | 251° |
| 2026-05-04 13:13 | 31.84318 | 119.09420 | 3001 ft | 162 kts | 240° |
| 2026-05-04 13:14 | 31.83771 | 119.08262 | 2997 ft | 162 kts | 238° |
| 2026-05-04 13:14 | 31.83196 | 119.07115 | 2996 ft | 163 kts | 237° |
| 2026-05-04 13:14 | 31.82614 | 119.05974 | 2994 ft | 163 kts | 236° |
| 2026-05-04 13:14 | 31.82012 | 119.04847 | 2994 ft | 163 kts | 236° |
| 2026-05-04 13:15 | 31.81409 | 119.03717 | 2993 ft | 163 kts | 236° |
| 2026-05-04 13:15 | 31.80817 | 119.02581 | 2856 ft | 162 kts | 237° |
| 2026-05-04 13:15 | 31.80232 | 119.01456 | 2675 ft | 159 kts | 236° |
| 2026-05-04 13:15 | 31.79650 | 119.00368 | 2426 ft | 155 kts | 235° |
| 2026-05-04 13:16 | 31.79088 | 118.99316 | 2220 ft | 149 kts | 235° |
| 2026-05-04 13:16 | 31.78540 | 118.98288 | 2027 ft | 148 kts | 235° |
| 2026-05-04 13:16 | 31.77996 | 118.97267 | 1830 ft | 147 kts | 235° |
| 2026-05-04 13:16 | 31.77461 | 118.96264 | 1646 ft | 142 kts | 234° |
| 2026-05-04 13:17 | 31.76954 | 118.95313 | 1442 ft | 133 kts | 234° |
| 2026-05-04 13:17 | 31.76466 | 118.94397 | 1254 ft | 131 kts | 234° |
| 2026-05-04 13:17 | 31.75989 | 118.93486 | 1067 ft | 131 kts | 235° |
| 2026-05-04 13:17 | 31.75508 | 118.92571 | 937 ft | 133 kts | 235° |
| 2026-05-04 13:18 | 31.75012 | 118.91669 | 762 ft | 133 kts | 234° |
| 2026-05-04 13:18 | 31.74529 | 118.90741 | 629 ft | 133 kts | 236° |
| 2026-05-04 13:18 | 31.74036 | 118.89817 | 447 ft | 134 kts | 237° |
| 2026-05-04 13:18 | 31.73544 | 118.88893 | 271 ft | 134 kts | 236° |
| 2026-05-04 13:19 | 31.73046 | 118.87985 | 103 ft | 134 kts | 238° |
| 2026-05-04 13:19 | 31.72716 | 118.87369 | 56 ft | 123 kts | 238° |
| 2026-05-04 13:19 | 31.72326 | 118.86645 | 55 ft | 92 kts | 238° |
| 2026-05-04 13:19 | 31.72038 | 118.86101 | 58 ft | 65 kts | 238° |
| 2026-05-04 13:20 | 31.71851 | 118.85745 | 57 ft | 38 kts | 237° |
| 2026-05-04 13:20 | 31.71756 | 118.85575 | 55 ft | 18 kts | 237° |
| 2026-05-04 13:20 | 31.71686 | 118.85442 | 60 ft | 20 kts | 238° |
| 2026-05-04 13:20 | 31.71621 | 118.85292 | 60 ft | 17 kts | 271° |
| 2026-05-04 13:21 | 31.71667 | 118.85220 | 60 ft | 10 kts | 325° |
| 2026-05-04 13:21 | 31.71675 | 118.85214 | 56 ft | 0 kts | 326° |
| 2026-05-04 13:21 | 31.71680 | 118.85210 | 54 ft | 2 kts | 326° |
| 2026-05-04 13:22 | 31.71707 | 118.85189 | 55 ft | 8 kts | 327° |
| 2026-05-04 13:22 | 31.71775 | 118.85149 | 56 ft | 11 kts | 352° |
| 2026-05-04 13:22 | 31.71835 | 118.85179 | 61 ft | 10 kts | 42° |
| 2026-05-04 13:22 | 31.71889 | 118.85267 | 55 ft | 17 kts | 58° |
| 2026-05-04 13:23 | 31.71956 | 118.85394 | 55 ft | 21 kts | 58° |
| 2026-05-04 13:23 | 31.72036 | 118.85547 | 58 ft | 23 kts | 58° |
| 2026-05-04 13:23 | 31.72123 | 118.85707 | 59 ft | 24 kts | 57° |
| 2026-05-04 13:23 | 31.72215 | 118.85874 | 55 ft | 25 kts | 57° |
| 2026-05-04 13:24 | 31.72308 | 118.86048 | 55 ft | 26 kts | 58° |
| 2026-05-04 13:24 | 31.72404 | 118.86227 | 56 ft | 26 kts | 58° |
| 2026-05-04 13:24 | 31.72500 | 118.86407 | 55 ft | 27 kts | 58° |
| 2026-05-04 13:25 | 31.72687 | 118.86606 | 57 ft | 11 kts | 34° |
| 2026-05-04 13:25 | 31.72740 | 118.86676 | 55 ft | 12 kts | 55° |
| 2026-05-04 13:25 | 31.72795 | 118.86774 | 57 ft | 17 kts | 57° |
| 2026-05-04 13:25 | 31.72865 | 118.86904 | 56 ft | 20 kts | 58° |
| 2026-05-04 13:26 | 31.72930 | 118.87026 | 55 ft | 0 kts | 57° |
| 2026-05-04 13:26 | 31.72936 | 118.87031 | 55 ft | 4 kts | 38° |
| 2026-05-04 13:26 | 31.72970 | 118.87042 | 60 ft | 5 kts | 359° |
| 2026-05-04 13:26 | 31.73009 | 118.87028 | 63 ft | 5 kts | 336° |
| 2026-05-04 13:27 | 31.73023 | 118.87020 | 57 ft | 0 kts | 332° |
| 2026-05-04 13:27 | 31.73028 | 118.87016 | 58 ft | 1 kts | 330° |
| 2026-05-04 13:27 | 31.73041 | 118.87007 | 60 ft | 2 kts | 329° |
| 2026-05-04 13:27 | 31.73042 | 118.87007 | 59 ft | 0 kts | 329° |